createdAt,value
2017-12-08T00:00:48.049Z,83.25
2017-12-08T00:03:19.590Z,83.04
2017-12-08T00:05:50.899Z,83.64
2017-12-08T00:08:22.020Z,83.84
2017-12-08T00:10:54.051Z,84.04
2017-12-08T00:13:25.633Z,84.20
2017-12-08T00:15:56.469Z,84.73
2017-12-08T00:18:27.695Z,85.27
2017-12-08T00:20:58.928Z,85.65
2017-12-08T00:23:29.883Z,85.25
2017-12-08T00:26:01.180Z,85.96
2017-12-08T00:28:32.263Z,86.43
2017-12-08T00:31:03.334Z,86.90
2017-12-08T00:33:34.578Z,86.61
2017-12-08T00:36:05.492Z,86.76
2017-12-08T00:38:36.418Z,86.09
2017-12-08T00:41:07.565Z,87.50
2017-12-08T00:43:38.550Z,86.65
2017-12-08T00:46:09.532Z,87.55
2017-12-08T00:48:40.694Z,87.62
2017-12-08T00:51:12.448Z,87.60
2017-12-08T00:53:43.349Z,87.72
2017-12-08T00:56:14.409Z,87.87
2017-12-08T00:58:45.457Z,87.33
2017-12-08T01:01:16.383Z,88.07
2017-12-08T01:03:49.819Z,87.64
2017-12-08T01:06:20.900Z,87.60
2017-12-08T01:08:51.855Z,87.22
2017-12-08T01:11:23.041Z,87.50
2017-12-08T01:13:54.551Z,87.01
2017-12-08T01:16:25.691Z,87.88
2017-12-08T01:18:57.065Z,86.43
2017-12-08T01:21:29.030Z,86.85
2017-12-08T01:24:05.662Z,86.90
2017-12-08T01:26:37.824Z,87.64
2017-12-08T01:29:08.818Z,87.05
2017-12-08T01:31:41.001Z,87.19
2017-12-08T01:34:12.027Z,87.61
2017-12-08T01:36:43.671Z,87.29
2017-12-08T01:39:15.968Z,86.76
2017-12-08T01:41:50.925Z,87.37
2017-12-08T01:44:22.821Z,86.60
2017-12-08T01:46:57.427Z,85.41
2017-12-08T01:49:30.353Z,86.09
2017-12-08T01:52:03.534Z,86.13
2017-12-08T01:54:39.673Z,85.74
2017-12-08T01:57:15.689Z,86.16
2017-12-08T01:59:49.302Z,86.02
2017-12-08T02:02:23.523Z,85.75
2017-12-08T02:04:54.634Z,86.24
2017-12-08T02:07:27.005Z,84.95
2017-12-08T02:09:58.616Z,85.35
2017-12-08T02:12:31.954Z,85.16
2017-12-08T02:15:03.420Z,85.82
2017-12-08T02:17:35.501Z,85.61
2017-12-08T02:20:09.816Z,85.32
2017-12-08T02:22:41.411Z,85.49
2017-12-08T02:25:13.142Z,85.12
2017-12-08T02:27:46.439Z,85.58
2017-12-08T02:30:17.924Z,86.72
2017-12-08T02:32:49.763Z,86.17
2017-12-08T02:35:21.549Z,86.20
2017-12-08T02:37:52.975Z,85.54
2017-12-08T02:40:24.942Z,86.29
2017-12-08T02:42:56.685Z,86.83
2017-12-08T02:45:27.648Z,86.30
2017-12-08T02:47:58.400Z,86.42
2017-12-08T02:50:30.368Z,86.27
2017-12-08T02:53:02.795Z,86.56
2017-12-08T02:55:35.133Z,86.93
2017-12-08T02:58:05.925Z,86.23
2017-12-08T03:00:37.003Z,86.74
2017-12-08T03:03:09.601Z,85.95
2017-12-08T03:05:41.574Z,86.03
2017-12-08T03:08:12.322Z,86.22
2017-12-08T03:10:54.250Z,86.97
2017-12-08T03:13:26.029Z,86.26
2017-12-08T03:15:57.115Z,87.07
2017-12-08T03:18:28.177Z,86.38
2017-12-08T03:20:59.982Z,87.07
2017-12-08T03:23:30.789Z,85.84
2017-12-08T03:26:03.246Z,86.25
2017-12-08T03:28:36.760Z,86.18
2017-12-08T03:31:09.397Z,86.45
2017-12-08T03:33:43.846Z,87.34
2017-12-08T03:36:15.026Z,89.12
2017-12-08T03:38:46.060Z,88.40
2017-12-08T03:41:17.762Z,89.21
2017-12-08T03:43:48.954Z,88.86
2017-12-08T03:46:21.136Z,88.79
2017-12-08T03:48:53.662Z,89.07
2017-12-08T03:51:25.036Z,87.80
2017-12-08T03:53:56.685Z,88.57
2017-12-08T03:56:28.495Z,87.75
2017-12-08T03:58:59.862Z,87.62
2017-12-08T04:01:33.065Z,86.13
2017-12-08T04:04:04.262Z,86.23
2017-12-08T04:06:35.913Z,86.08
2017-12-08T04:09:07.415Z,87.04
2017-12-08T04:11:39.845Z,87.76
2017-12-08T04:14:13.213Z,87.07
2017-12-08T04:16:44.880Z,87.52
2017-12-08T04:19:18.427Z,86.68
2017-12-08T04:21:50.085Z,86.12
2017-12-08T04:24:21.079Z,85.16
2017-12-08T04:26:54.155Z,84.45
2017-12-08T04:29:26.075Z,85.65
2017-12-08T04:31:57.011Z,84.92
2017-12-08T04:34:28.503Z,84.94
2017-12-08T04:37:01.372Z,84.49
2017-12-08T04:39:34.150Z,84.62
2017-12-08T04:42:05.120Z,85.04
2017-12-08T04:44:36.435Z,85.46
2017-12-08T04:47:07.653Z,86.94
2017-12-08T04:49:38.523Z,87.15
2017-12-08T04:52:09.733Z,86.47
2017-12-08T04:54:40.573Z,86.45
2017-12-08T04:57:12.692Z,86.17
2017-12-08T04:59:44.124Z,86.15
2017-12-08T05:02:15.626Z,86.50
2017-12-08T05:04:47.680Z,87.08
2017-12-08T05:07:19.862Z,87.00
2017-12-08T05:09:51.628Z,87.20
2017-12-08T05:12:23.611Z,87.35
2017-12-08T05:14:55.279Z,86.77
2017-12-08T05:17:26.304Z,86.88
2017-12-08T05:19:57.741Z,87.10
2017-12-08T05:22:31.352Z,86.83
2017-12-08T05:25:02.934Z,86.74
2017-12-08T05:27:34.613Z,87.16
2017-12-08T05:30:05.387Z,86.46
2017-12-08T05:32:38.058Z,86.09
2017-12-08T05:35:09.248Z,85.19
2017-12-08T05:37:40.421Z,85.35
2017-12-08T05:40:22.288Z,85.89
2017-12-08T05:42:53.313Z,86.11
2017-12-08T05:45:27.294Z,86.61
2017-12-08T05:48:00.396Z,86.34
2017-12-08T05:50:31.253Z,86.51
2017-12-08T05:53:02.298Z,87.23
2017-12-08T05:55:33.941Z,86.83
2017-12-08T05:59:30.474Z,86.71
2017-12-08T06:02:02.400Z,86.31
2017-12-08T06:04:35.762Z,85.85
2017-12-08T06:07:11.156Z,85.90
2017-12-08T06:09:43.520Z,85.55
2017-12-08T06:12:15.634Z,85.47
2017-12-08T06:14:58.443Z,85.12
2017-12-08T06:17:30.055Z,85.65
2017-12-08T06:20:14.967Z,85.20
2017-12-08T06:22:46.190Z,85.50
2017-12-08T06:25:17.950Z,85.24
2017-12-08T06:27:49.064Z,84.46
2017-12-08T06:30:20.571Z,84.59
2017-12-08T06:32:51.782Z,84.26
2017-12-08T06:35:23.379Z,85.22
2017-12-08T06:37:55.927Z,85.17
2017-12-08T06:40:27.274Z,84.16
2017-12-08T06:43:04.317Z,82.92
2017-12-08T06:45:36.298Z,83.11
2017-12-08T06:48:07.959Z,83.18
2017-12-08T06:50:38.887Z,82.91
2017-12-08T06:53:10.788Z,82.62
2017-12-08T06:55:42.480Z,83.09
2017-12-08T06:58:16.836Z,83.70
2017-12-08T07:00:48.273Z,84.20
2017-12-08T07:03:19.330Z,84.26
2017-12-08T07:05:52.226Z,84.55
2017-12-08T07:08:23.522Z,83.89
2017-12-08T07:10:55.689Z,84.64
2017-12-08T07:13:27.366Z,84.11
2017-12-08T07:16:02.979Z,83.93
2017-12-08T07:18:34.683Z,83.57
2017-12-08T07:21:06.327Z,84.72
2017-12-08T07:23:37.211Z,83.84
2017-12-08T07:26:08.824Z,83.27
2017-12-08T07:28:40.742Z,83.38
2017-12-08T07:31:16.580Z,83.34
2017-12-08T07:33:47.950Z,82.67
2017-12-08T07:36:19.067Z,82.42
2017-12-08T07:38:50.869Z,82.48
2017-12-08T07:41:24.212Z,82.71
2017-12-08T07:43:57.090Z,81.65
2017-12-08T07:46:28.870Z,81.81
2017-12-08T07:49:00.514Z,81.50
2017-12-08T07:51:32.163Z,81.22
2017-12-08T07:54:04.307Z,80.86
2017-12-08T07:56:37.893Z,80.93
2017-12-08T07:59:09.070Z,80.48
2017-12-08T08:01:40.670Z,80.39
2017-12-08T08:04:13.257Z,79.61
2017-12-08T08:06:44.514Z,80.03
2017-12-08T08:09:15.653Z,80.01
2017-12-08T08:11:48.960Z,79.32
2017-12-08T08:14:21.316Z,79.43
2017-12-08T08:16:53.642Z,78.62
2017-12-08T08:19:24.985Z,79.00
2017-12-08T08:22:02.193Z,78.23
2017-12-08T08:24:35.215Z,77.73
2017-12-08T08:27:11.025Z,77.29
2017-12-08T08:29:43.535Z,77.62
2017-12-08T08:32:16.225Z,76.48
2017-12-08T08:34:48.835Z,76.19
2017-12-08T08:37:20.343Z,75.84
2017-12-08T08:39:55.118Z,74.04
2017-12-08T08:42:26.694Z,75.21
2017-12-08T08:44:59.580Z,86.11
2017-12-08T08:47:31.175Z,90.84
2017-12-08T08:50:05.649Z,92.09
2017-12-08T08:52:36.862Z,91.96
2017-12-08T08:55:07.951Z,92.36
2017-12-08T08:57:42.494Z,93.02
2017-12-08T09:00:18.077Z,91.05
2017-12-08T09:03:03.744Z,93.08
2017-12-08T09:05:34.960Z,88.56
2017-12-08T09:08:06.924Z,86.47
2017-12-08T09:10:38.312Z,87.12
2017-12-08T09:13:09.696Z,87.28
2017-12-08T09:15:40.812Z,87.66
2017-12-08T09:18:17.126Z,88.37
2017-12-08T09:20:53.947Z,88.14
2017-12-08T09:23:27.077Z,87.99
2017-12-08T09:26:02.087Z,87.82
2017-12-08T09:28:37.835Z,87.98
2017-12-08T09:33:49.279Z,87.25
2017-12-08T09:36:21.613Z,87.14
2017-12-08T09:38:53.988Z,87.68
2017-12-08T09:41:25.864Z,87.29
2017-12-08T09:43:59.321Z,86.92
2017-12-08T09:46:31.267Z,86.29
2017-12-08T09:49:04.556Z,86.85
2017-12-08T09:51:43.624Z,86.65
2017-12-08T09:54:22.523Z,85.77
2017-12-08T09:57:03.158Z,85.00
2017-12-08T09:59:37.103Z,84.78
2017-12-08T10:02:08.902Z,84.24
2017-12-08T10:04:41.764Z,84.98
2017-12-08T10:07:14.514Z,84.53
2017-12-08T10:09:46.210Z,83.15
2017-12-08T10:12:22.039Z,82.95
2017-12-08T10:14:54.794Z,81.29
2017-12-08T10:17:26.158Z,80.26
2017-12-08T10:19:58.030Z,79.94
2017-12-08T10:22:29.679Z,79.34
2017-12-08T10:25:01.392Z,78.29
2017-12-08T10:27:34.040Z,77.00
2017-12-08T10:30:07.506Z,74.18
2017-12-08T10:32:45.103Z,73.83
2017-12-08T10:35:20.388Z,72.50
2017-12-08T10:37:52.543Z,70.18
2017-12-08T10:40:23.956Z,72.18
2017-12-08T10:42:55.526Z,70.71
2017-12-08T10:45:29.594Z,70.52
2017-12-08T10:48:06.345Z,69.89
2017-12-08T10:50:39.094Z,69.31
2017-12-08T10:53:09.947Z,68.60
2017-12-08T10:55:43.662Z,67.83
2017-12-08T10:58:15.469Z,67.62
2017-12-08T11:05:06.768Z,68.33
2017-12-08T11:07:38.614Z,66.90
2017-12-08T11:10:19.218Z,66.55
2017-12-08T11:12:51.410Z,65.70
2017-12-08T11:15:25.695Z,66.54
2017-12-08T11:17:57.454Z,65.42
2017-12-08T11:20:30.113Z,65.59
2017-12-08T11:23:02.139Z,65.60
2017-12-08T11:25:33.627Z,66.35
2017-12-08T11:28:04.781Z,65.41
2017-12-08T11:30:36.145Z,65.96
2017-12-08T11:33:07.642Z,65.22
2017-12-08T11:35:43.548Z,64.16
2017-12-08T11:38:15.840Z,64.75
2017-12-08T11:40:49.871Z,64.93
2017-12-08T11:43:23.667Z,66.04
2017-12-08T11:45:58.305Z,66.20
2017-12-08T11:48:31.836Z,66.63
2017-12-08T11:51:04.079Z,65.43
2017-12-08T11:53:37.450Z,65.27
2017-12-08T11:56:17.343Z,63.99
2017-12-08T11:58:50.969Z,64.22
2017-12-08T12:01:23.101Z,62.94
2017-12-08T12:03:55.597Z,64.56
2017-12-08T12:06:27.791Z,65.02
2017-12-08T12:09:00.311Z,64.91
2017-12-08T12:14:20.581Z,64.12
2017-12-08T12:16:58.476Z,63.64
2017-12-08T12:19:35.153Z,63.31
2017-12-08T12:22:21.210Z,63.81
2017-12-08T12:24:57.998Z,64.52
2017-12-08T12:27:38.820Z,64.36
2017-12-08T12:30:18.025Z,64.00
2017-12-08T12:32:51.109Z,65.06
2017-12-08T12:35:32.514Z,64.57
2017-12-08T12:38:08.424Z,63.88
2017-12-08T12:40:42.620Z,65.21
2017-12-08T12:43:35.823Z,64.59
2017-12-08T12:46:12.200Z,64.50
2017-12-08T12:48:43.823Z,64.25
2017-12-08T12:51:23.332Z,63.46
2017-12-08T12:53:57.058Z,63.45
2017-12-08T12:56:31.309Z,63.15
2017-12-08T12:59:07.989Z,63.91
2017-12-08T13:01:56.334Z,65.04
2017-12-08T13:04:37.267Z,64.98
2017-12-08T13:07:09.392Z,64.27
2017-12-08T13:09:50.240Z,63.79
2017-12-08T13:12:27.069Z,75.72
2017-12-08T13:15:11.782Z,84.53
2017-12-08T13:17:44.561Z,88.23
2017-12-08T13:23:20.713Z,87.56
2017-12-08T13:26:01.624Z,88.37
2017-12-08T13:28:35.365Z,90.28
2017-12-08T13:31:07.247Z,89.58
2017-12-08T13:33:40.014Z,88.89
2017-12-08T13:36:13.520Z,89.69
2017-12-08T13:38:44.493Z,90.46
2017-12-08T13:41:16.088Z,90.66
2017-12-08T13:43:46.931Z,88.32
2017-12-08T13:46:18.600Z,86.14
2017-12-08T13:48:51.342Z,83.87
2017-12-08T13:51:22.723Z,83.16
2017-12-08T13:56:11.009Z,81.66
2017-12-08T13:58:43.123Z,80.12
2017-12-08T14:01:15.310Z,80.22
2017-12-08T14:03:47.872Z,79.29
2017-12-08T14:06:20.009Z,79.02
2017-12-08T14:08:54.241Z,78.11
2017-12-08T14:11:25.907Z,77.83
2017-12-08T14:13:58.393Z,76.98
2017-12-08T14:16:30.693Z,75.52
2017-12-08T14:19:04.406Z,75.05
2017-12-08T14:21:36.397Z,73.41
2017-12-08T14:24:11.146Z,72.59
2017-12-08T14:26:48.002Z,71.29
2017-12-08T14:29:20.762Z,70.32
2017-12-08T14:31:54.133Z,70.01
2017-12-08T14:34:27.188Z,70.00
2017-12-08T14:37:02.108Z,68.52
2017-12-08T14:39:33.849Z,68.43
2017-12-08T14:42:06.487Z,69.68
2017-12-08T14:44:38.494Z,70.18
2017-12-08T14:47:09.657Z,69.67
2017-12-08T14:49:40.740Z,69.22
2017-12-08T14:52:12.259Z,69.63
2017-12-08T14:54:44.993Z,69.00
2017-12-08T14:57:16.444Z,68.89
2017-12-08T14:59:50.503Z,68.70
2017-12-08T15:02:29.949Z,68.33
2017-12-08T15:05:13.187Z,68.22
2017-12-08T15:07:50.073Z,67.72
2017-12-08T15:10:23.370Z,68.50
2017-12-08T15:12:54.481Z,68.96
2017-12-08T15:15:26.324Z,68.80
2017-12-08T15:18:07.159Z,67.85
2017-12-08T15:20:41.172Z,68.82
2017-12-08T15:23:15.992Z,68.71
2017-12-08T15:25:50.091Z,67.87
2017-12-08T15:28:26.317Z,67.99
2017-12-08T15:31:00.216Z,68.45
2017-12-08T15:33:32.314Z,68.46
2017-12-08T15:36:06.109Z,67.95
2017-12-08T15:38:39.496Z,68.30
2017-12-08T15:41:16.924Z,68.49
2017-12-08T15:43:48.683Z,68.20
2017-12-08T15:46:22.695Z,69.13
2017-12-08T15:48:57.285Z,68.95
2017-12-08T15:51:29.970Z,68.99
2017-12-08T15:54:02.050Z,69.21
2017-12-08T15:56:36.192Z,69.80
2017-12-08T15:59:17.684Z,70.06
2017-12-08T16:01:51.140Z,69.89
2017-12-08T16:04:23.603Z,69.99
2017-12-08T16:06:55.728Z,69.81
2017-12-08T16:09:28.190Z,70.49
2017-12-08T16:12:00.838Z,70.49
2017-12-08T16:14:32.914Z,70.78
2017-12-08T16:17:05.290Z,71.03
2017-12-08T16:19:38.149Z,71.17
2017-12-08T16:22:12.964Z,71.71
2017-12-08T16:24:46.928Z,71.58
2017-12-08T16:27:18.861Z,72.43
2017-12-08T16:29:50.929Z,72.81
2017-12-08T16:32:23.749Z,73.28
2017-12-08T16:34:54.705Z,74.16
2017-12-08T16:37:27.343Z,73.91
2017-12-08T16:39:59.077Z,75.04
2017-12-08T16:42:30.527Z,75.47
2017-12-08T16:45:01.765Z,76.69
2017-12-08T16:47:33.188Z,77.31
2017-12-08T16:50:05.038Z,77.81
2017-12-08T16:52:36.448Z,78.21
2017-12-08T16:55:08.321Z,80.13
2017-12-08T16:57:39.268Z,80.12
2017-12-08T17:00:11.291Z,80.39
2017-12-08T17:02:45.159Z,80.95
2017-12-08T17:05:16.839Z,82.49
2017-12-08T17:07:50.803Z,81.69
2017-12-08T17:12:58.339Z,83.77
2017-12-08T17:15:32.157Z,84.07
2017-12-08T17:18:04.713Z,84.42
2017-12-08T17:20:36.665Z,85.58
2017-12-08T17:23:08.398Z,85.64
2017-12-08T17:25:40.873Z,86.43
2017-12-08T17:28:12.242Z,85.37
2017-12-08T17:30:43.444Z,86.46
2017-12-08T17:33:15.531Z,86.35
2017-12-08T17:35:46.619Z,86.18
2017-12-08T17:38:19.014Z,86.58
2017-12-08T17:40:50.540Z,87.12
2017-12-08T17:43:21.694Z,87.39
2017-12-08T17:45:54.295Z,86.39
2017-12-08T17:48:25.506Z,86.79
2017-12-08T17:50:59.348Z,87.46
2017-12-08T17:53:31.624Z,86.24
2017-12-08T17:56:04.431Z,86.16
2017-12-08T17:58:36.508Z,86.42
2017-12-08T18:01:08.242Z,86.46
2017-12-08T18:03:40.411Z,85.93
2017-12-08T18:06:11.957Z,86.23
2017-12-08T18:08:43.544Z,85.42
2017-12-08T18:11:15.944Z,87.18
2017-12-08T18:13:47.673Z,87.33
2017-12-08T18:16:20.074Z,87.22
2017-12-08T18:18:51.753Z,87.63
2017-12-08T18:21:23.808Z,87.12
2017-12-08T18:23:54.867Z,88.80
2017-12-08T18:26:26.275Z,88.31
2017-12-08T18:28:58.517Z,88.33
2017-12-08T18:31:30.163Z,87.73
2017-12-08T18:34:03.733Z,88.69
2017-12-08T18:36:35.088Z,89.10
2017-12-08T18:39:07.491Z,89.44
2017-12-08T18:41:39.123Z,87.46
2017-12-08T18:44:10.727Z,87.66
2017-12-08T18:46:42.479Z,86.70
2017-12-08T18:49:13.646Z,86.74
2017-12-08T18:51:46.642Z,86.24
2017-12-08T18:54:24.134Z,86.86
2017-12-08T18:56:56.856Z,87.02
2017-12-08T18:59:30.568Z,87.01
2017-12-08T19:02:05.391Z,87.02
2017-12-08T19:04:41.287Z,85.66
2017-12-08T19:07:13.624Z,85.40
2017-12-08T19:09:47.941Z,84.17
2017-12-08T19:12:19.142Z,83.78
2017-12-08T19:14:54.213Z,82.88
2017-12-08T19:17:36.785Z,84.02
2017-12-08T19:20:12.228Z,84.25
2017-12-08T19:22:44.828Z,84.18
2017-12-08T19:25:23.822Z,84.26
2017-12-08T19:27:55.983Z,84.60
2017-12-08T19:30:27.419Z,84.31
2017-12-08T19:32:58.992Z,84.34
2017-12-08T19:35:33.526Z,83.92
2017-12-08T19:38:05.210Z,82.64
2017-12-08T19:40:37.299Z,83.01
2017-12-08T19:43:08.814Z,81.79
2017-12-08T19:45:40.670Z,82.31
2017-12-08T19:48:14.258Z,82.26
2017-12-08T19:50:49.285Z,82.21
2017-12-08T19:53:24.819Z,83.08
2017-12-08T19:55:56.008Z,82.71
2017-12-08T19:58:30.969Z,81.29
2017-12-08T20:01:03.797Z,82.00
2017-12-08T20:03:36.016Z,82.12
2017-12-08T20:06:07.790Z,82.38
2017-12-08T20:08:40.077Z,81.82
2017-12-08T20:11:13.416Z,80.90
2017-12-08T20:13:45.407Z,80.93
2017-12-08T20:16:17.257Z,81.32
2017-12-08T20:18:48.691Z,81.14
2017-12-08T20:21:20.234Z,80.98
2017-12-08T20:23:51.864Z,81.11
2017-12-08T20:26:28.659Z,82.09
2017-12-08T20:29:00.099Z,81.83
2017-12-08T20:31:31.633Z,81.37
2017-12-08T20:34:04.012Z,81.67
2017-12-08T20:36:34.904Z,80.74
2017-12-08T20:39:06.084Z,80.83
2017-12-08T20:41:37.794Z,81.55
2017-12-08T20:44:11.510Z,81.35
2017-12-08T20:46:42.503Z,81.66
2017-12-08T20:49:15.011Z,80.95
2017-12-08T20:51:46.415Z,81.03
2017-12-08T20:54:20.709Z,80.90
2017-12-08T20:56:52.668Z,81.05
2017-12-08T20:59:24.119Z,80.82
2017-12-08T21:01:55.697Z,81.50
2017-12-08T21:04:26.928Z,81.09
2017-12-08T21:06:58.849Z,80.63
2017-12-08T21:09:30.107Z,80.74
2017-12-08T21:12:01.117Z,80.56
2017-12-08T21:14:32.612Z,80.64
2017-12-08T21:17:04.360Z,80.29
2017-12-08T21:19:35.980Z,80.73
2017-12-08T21:22:07.425Z,80.32
2017-12-08T21:24:38.700Z,80.25
2017-12-08T21:27:10.508Z,80.04
2017-12-08T21:29:41.781Z,79.95
2017-12-08T21:32:14.368Z,79.95
2017-12-08T21:34:47.883Z,79.90
2017-12-08T21:37:21.828Z,79.66
2017-12-08T21:39:53.676Z,79.31
2017-12-08T21:42:31.030Z,79.21
2017-12-08T21:45:03.322Z,78.92
2017-12-08T21:47:36.375Z,78.29
2017-12-08T21:50:08.229Z,78.48
2017-12-08T21:52:39.529Z,79.09
2017-12-08T21:55:11.921Z,79.12
2017-12-08T21:57:47.175Z,78.60
2017-12-08T22:00:19.385Z,78.09
2017-12-08T22:02:50.632Z,79.26
2017-12-08T22:05:22.451Z,79.30
2017-12-08T22:07:53.620Z,78.40
2017-12-08T22:10:25.473Z,78.59
2017-12-08T22:12:58.324Z,77.34
2017-12-08T22:15:30.832Z,77.26
2017-12-08T22:18:02.352Z,78.19
2017-12-08T22:20:33.761Z,78.47
2017-12-08T22:23:06.912Z,78.07
2017-12-08T22:25:38.173Z,77.74
2017-12-08T22:28:09.435Z,78.14
2017-12-08T22:30:40.890Z,76.53
2017-12-08T22:33:11.850Z,78.02
2017-12-08T22:35:42.744Z,77.33
2017-12-08T22:38:14.577Z,76.53
2017-12-08T22:40:46.047Z,75.34
2017-12-08T22:43:17.164Z,74.48
2017-12-08T22:45:48.645Z,74.25
2017-12-08T22:48:19.848Z,73.99
2017-12-08T22:50:53.762Z,74.46
2017-12-08T22:53:25.149Z,73.25
2017-12-08T22:55:57.351Z,73.58
2017-12-08T22:58:28.791Z,73.78
2017-12-08T23:01:00.441Z,74.78
2017-12-08T23:03:33.395Z,74.58
2017-12-08T23:06:05.492Z,74.35
2017-12-08T23:08:36.730Z,74.83
2017-12-08T23:11:11.813Z,74.51
2017-12-08T23:13:42.804Z,75.11
2017-12-08T23:16:14.688Z,74.80
2017-12-08T23:18:46.504Z,74.43
2017-12-08T23:21:18.110Z,75.07
2017-12-08T23:23:49.564Z,74.16
2017-12-08T23:26:20.912Z,73.34
2017-12-08T23:28:52.807Z,73.82
2017-12-08T23:31:24.813Z,75.16
2017-12-08T23:33:55.922Z,73.60
2017-12-08T23:36:27.149Z,73.65
2017-12-08T23:38:58.368Z,73.56
2017-12-08T23:41:29.480Z,73.05
2017-12-08T23:44:00.679Z,73.15
2017-12-08T23:46:35.559Z,73.11
2017-12-08T23:49:06.570Z,72.94
2017-12-08T23:51:37.695Z,73.50
2017-12-08T23:54:09.643Z,72.90
2017-12-08T23:56:41.132Z,72.75
2017-12-08T23:59:23.993Z,72.82
